sensor_id;sensor_type;location;lat;lon;timestamp;temperature;humidity
45319;DHT22;31057;48.498;32.260;2024-02-28T00:00:10;-0.20;99.90
45319;DHT22;31057;48.498;32.260;2024-02-28T00:02:15;-0.20;99.90
45319;DHT22;31057;48.498;32.260;2024-02-28T00:04:17;-0.30;99.90
45319;DHT22;31057;48.498;32.260;2024-02-28T00:06:19;-0.30;99.90
45319;DHT22;31057;48.498;32.260;2024-02-28T00:08:21;-0.40;99.90
45319;DHT22;31057;48.498;32.260;2024-02-28T00:10:23;-0.30;99.90
45319;DHT22;31057;48.498;32.260;2024-02-28T00:12:25;-0.40;99.90
45319;DHT22;31057;48.498;32.260;2024-02-28T00:14:27;-0.30;99.90
45319;DHT22;31057;48.498;32.260;2024-02-28T00:16:29;-0.40;99.90
45319;DHT22;31057;48.498;32.260;2024-02-28T00:18:31;-0.50;99.90
45319;DHT22;31057;48.498;32.260;2024-02-28T00:20:33;-0.40;99.90
45319;DHT22;31057;48.498;32.260;2024-02-28T00:22:36;-0.40;99.90
45319;DHT22;31057;48.498;32.260;2024-02-28T00:24:41;-0.40;99.90
45319;DHT22;31057;48.498;32.260;2024-02-28T00:26:43;-0.40;99.90
45319;DHT22;31057;48.498;32.260;2024-02-28T00:28:45;-0.40;99.90
45319;DHT22;31057;48.498;32.260;2024-02-28T00:30:47;-0.40;99.90
45319;DHT22;31057;48.498;32.260;2024-02-28T00:32:49;-0.30;99.90
45319;DHT22;31057;48.498;32.260;2024-02-28T00:34:51;-0.30;99.90
45319;DHT22;31057;48.498;32.260;2024-02-28T00:36:53;-0.40;99.90
45319;DHT22;31057;48.498;32.260;2024-02-28T00:38:57;-0.40;99.90
45319;DHT22;31057;48.498;32.260;2024-02-28T00:41:00;-0.50;99.90
45319;DHT22;31057;48.498;32.260;2024-02-28T00:43:02;-0.40;99.90
45319;DHT22;31057;48.498;32.260;2024-02-28T00:45:04;-0.50;99.90
45319;DHT22;31057;48.498;32.260;2024-02-28T00:47:06;-0.50;99.90
45319;DHT22;31057;48.498;32.260;2024-02-28T00:49:09;-0.50;99.90
45319;DHT22;31057;48.498;32.260;2024-02-28T00:51:10;-0.50;99.90
45319;DHT22;31057;48.498;32.260;2024-02-28T00:53:12;-0.60;99.90
45319;DHT22;31057;48.498;32.260;2024-02-28T00:55:14;-0.50;99.90
45319;DHT22;31057;48.498;32.260;2024-02-28T00:57:16;-0.50;99.90
45319;DHT22;31057;48.498;32.260;2024-02-28T00:59:19;-0.40;99.90
45319;DHT22;31057;48.498;32.260;2024-02-28T01:01:21;-0.40;99.90
45319;DHT22;31057;48.498;32.260;2024-02-28T01:03:23;-0.40;99.90
45319;DHT22;31057;48.498;32.260;2024-02-28T01:05:25;-0.40;99.90
45319;DHT22;31057;48.498;32.260;2024-02-28T01:07:27;-0.40;99.90
45319;DHT22;31057;48.498;32.260;2024-02-28T01:09:29;-0.50;99.90
45319;DHT22;31057;48.498;32.260;2024-02-28T01:11:31;-0.50;99.90
45319;DHT22;31057;48.498;32.260;2024-02-28T01:13:33;-0.60;99.90
45319;DHT22;31057;48.498;32.260;2024-02-28T01:15:35;-0.60;99.90
45319;DHT22;31057;48.498;32.260;2024-02-28T01:17:37;-0.60;99.90
45319;DHT22;31057;48.498;32.260;2024-02-28T01:19:40;-0.60;99.90
45319;DHT22;31057;48.498;32.260;2024-02-28T01:21:42;-0.60;99.90
45319;DHT22;31057;48.498;32.260;2024-02-28T01:23:43;-0.60;99.90
45319;DHT22;31057;48.498;32.260;2024-02-28T01:25:45;-0.60;99.90
45319;DHT22;31057;48.498;32.260;2024-02-28T01:27:47;-0.60;99.90
45319;DHT22;31057;48.498;32.260;2024-02-28T01:29:49;-0.60;99.90
45319;DHT22;31057;48.498;32.260;2024-02-28T01:31:51;-0.50;99.90
45319;DHT22;31057;48.498;32.260;2024-02-28T01:33:53;-0.60;99.90
45319;DHT22;31057;48.498;32.260;2024-02-28T01:35:57;-0.60;99.90
45319;DHT22;31057;48.498;32.260;2024-02-28T01:38:00;-0.60;99.90
45319;DHT22;31057;48.498;32.260;2024-02-28T01:40:02;-0.60;99.90
45319;DHT22;31057;48.498;32.260;2024-02-28T01:42:06;-0.70;99.90
45319;DHT22;31057;48.498;32.260;2024-02-28T01:44:07;-0.60;99.90
45319;DHT22;31057;48.498;32.260;2024-02-28T01:46:35;-0.60;99.90
45319;DHT22;31057;48.498;32.260;2024-02-28T01:48:39;-0.60;99.90
45319;DHT22;31057;48.498;32.260;2024-02-28T01:50:41;-0.50;99.90
45319;DHT22;31057;48.498;32.260;2024-02-28T01:52:43;-0.50;99.90
45319;DHT22;31057;48.498;32.260;2024-02-28T01:54:45;-0.50;99.90
45319;DHT22;31057;48.498;32.260;2024-02-28T01:56:47;-0.60;99.90
45319;DHT22;31057;48.498;32.260;2024-02-28T01:58:49;-0.50;99.90
45319;DHT22;31057;48.498;32.260;2024-02-28T02:00:52;-0.60;99.90
45319;DHT22;31057;48.498;32.260;2024-02-28T02:02:55;-0.60;99.90
45319;DHT22;31057;48.498;32.260;2024-02-28T02:04:57;-0.70;99.90
45319;DHT22;31057;48.498;32.260;2024-02-28T02:07:00;-0.70;99.90
45319;DHT22;31057;48.498;32.260;2024-02-28T02:09:02;-0.60;99.90
45319;DHT22;31057;48.498;32.260;2024-02-28T02:11:04;-0.60;99.90
45319;DHT22;31057;48.498;32.260;2024-02-28T02:13:06;-0.60;99.90
45319;DHT22;31057;48.498;32.260;2024-02-28T02:15:09;-0.60;99.90
45319;DHT22;31057;48.498;32.260;2024-02-28T02:17:12;-0.60;99.90
45319;DHT22;31057;48.498;32.260;2024-02-28T02:19:14;-0.60;99.90
45319;DHT22;31057;48.498;32.260;2024-02-28T02:21:17;-0.60;99.90
45319;DHT22;31057;48.498;32.260;2024-02-28T02:23:20;-0.60;99.90
45319;DHT22;31057;48.498;32.260;2024-02-28T02:25:21;-0.60;99.90
45319;DHT22;31057;48.498;32.260;2024-02-28T02:27:24;-0.70;99.90
45319;DHT22;31057;48.498;32.260;2024-02-28T02:29:27;-0.70;99.90
45319;DHT22;31057;48.498;32.260;2024-02-28T02:31:30;-0.70;99.90
45319;DHT22;31057;48.498;32.260;2024-02-28T02:33:32;-0.80;99.90
45319;DHT22;31057;48.498;32.260;2024-02-28T02:35:34;-0.90;99.90
45319;DHT22;31057;48.498;32.260;2024-02-28T02:37:36;-0.80;99.90
45319;DHT22;31057;48.498;32.260;2024-02-28T02:39:38;-0.90;99.90
45319;DHT22;31057;48.498;32.260;2024-02-28T02:41:40;-0.90;99.90
45319;DHT22;31057;48.498;32.260;2024-02-28T02:43:42;-0.90;99.90
45319;DHT22;31057;48.498;32.260;2024-02-28T02:45:44;-1.00;99.90
45319;DHT22;31057;48.498;32.260;2024-02-28T02:47:46;-1.00;99.90
45319;DHT22;31057;48.498;32.260;2024-02-28T02:49:48;-1.00;99.90
45319;DHT22;31057;48.498;32.260;2024-02-28T02:51:50;-1.00;99.90
45319;DHT22;31057;48.498;32.260;2024-02-28T02:53:52;-1.10;99.90
45319;DHT22;31057;48.498;32.260;2024-02-28T02:55:55;-1.00;99.90
45319;DHT22;31057;48.498;32.260;2024-02-28T02:57:57;-1.00;99.90
45319;DHT22;31057;48.498;32.260;2024-02-28T02:59:59;-1.00;99.90
45319;DHT22;31057;48.498;32.260;2024-02-28T03:02:01;-0.90;99.90
45319;DHT22;31057;48.498;32.260;2024-02-28T03:04:03;-1.00;99.90
45319;DHT22;31057;48.498;32.260;2024-02-28T03:06:05;-1.00;99.90
45319;DHT22;31057;48.498;32.260;2024-02-28T03:08:07;-1.00;99.90
45319;DHT22;31057;48.498;32.260;2024-02-28T03:10:09;-1.00;99.90
45319;DHT22;31057;48.498;32.260;2024-02-28T03:12:12;-1.00;99.90
45319;DHT22;31057;48.498;32.260;2024-02-28T03:14:14;-1.10;99.90
45319;DHT22;31057;48.498;32.260;2024-02-28T03:16:16;-1.10;99.90
45319;DHT22;31057;48.498;32.260;2024-02-28T03:18:18;-1.00;99.90
45319;DHT22;31057;48.498;32.260;2024-02-28T03:20:20;-1.10;99.90
45319;DHT22;31057;48.498;32.260;2024-02-28T03:22:23;-1.10;99.90
45319;DHT22;31057;48.498;32.260;2024-02-28T03:24:24;-1.10;99.90
45319;DHT22;31057;48.498;32.260;2024-02-28T03:26:26;-1.10;99.90
45319;DHT22;31057;48.498;32.260;2024-02-28T03:28:28;-1.10;99.90
45319;DHT22;31057;48.498;32.260;2024-02-28T03:30:30;-1.10;99.90
45319;DHT22;31057;48.498;32.260;2024-02-28T03:32:32;-1.20;99.90
45319;DHT22;31057;48.498;32.260;2024-02-28T03:34:34;-1.20;99.90
45319;DHT22;31057;48.498;32.260;2024-02-28T03:36:36;-1.20;99.90
45319;DHT22;31057;48.498;32.260;2024-02-28T03:38:38;-1.20;99.90
45319;DHT22;31057;48.498;32.260;2024-02-28T03:40:40;-1.20;99.90
45319;DHT22;31057;48.498;32.260;2024-02-28T03:42:42;-1.20;99.90
45319;DHT22;31057;48.498;32.260;2024-02-28T03:44:44;-1.20;99.90
45319;DHT22;31057;48.498;32.260;2024-02-28T03:46:46;-1.20;99.90
45319;DHT22;31057;48.498;32.260;2024-02-28T03:48:48;-1.20;99.90
45319;DHT22;31057;48.498;32.260;2024-02-28T03:50:50;-1.10;99.90
45319;DHT22;31057;48.498;32.260;2024-02-28T03:52:52;-1.10;99.90
45319;DHT22;31057;48.498;32.260;2024-02-28T03:54:54;-1.20;99.90
45319;DHT22;31057;48.498;32.260;2024-02-28T03:56:56;-1.10;99.90
45319;DHT22;31057;48.498;32.260;2024-02-28T03:58:58;-1.20;99.90
45319;DHT22;31057;48.498;32.260;2024-02-28T04:01:00;-1.20;99.90
45319;DHT22;31057;48.498;32.260;2024-02-28T04:03:02;-1.30;99.90
45319;DHT22;31057;48.498;32.260;2024-02-28T04:05:05;-1.20;99.90
45319;DHT22;31057;48.498;32.260;2024-02-28T04:07:07;-1.30;99.90
45319;DHT22;31057;48.498;32.260;2024-02-28T04:09:08;-1.40;99.90
45319;DHT22;31057;48.498;32.260;2024-02-28T04:11:11;-1.30;99.90
45319;DHT22;31057;48.498;32.260;2024-02-28T04:13:12;-1.20;99.90
45319;DHT22;31057;48.498;32.260;2024-02-28T04:15:14;-1.10;99.90
45319;DHT22;31057;48.498;32.260;2024-02-28T04:17:17;-1.10;99.90
45319;DHT22;31057;48.498;32.260;2024-02-28T04:19:19;-1.00;99.90
45319;DHT22;31057;48.498;32.260;2024-02-28T04:21:20;-1.00;99.90
45319;DHT22;31057;48.498;32.260;2024-02-28T04:23:22;-1.10;99.90
45319;DHT22;31057;48.498;32.260;2024-02-28T04:25:24;-1.20;99.90
45319;DHT22;31057;48.498;32.260;2024-02-28T04:27:26;-1.30;99.90
45319;DHT22;31057;48.498;32.260;2024-02-28T04:29:28;-1.40;99.90
45319;DHT22;31057;48.498;32.260;2024-02-28T04:31:31;-1.40;99.90
45319;DHT22;31057;48.498;32.260;2024-02-28T04:33:33;-1.40;99.90
45319;DHT22;31057;48.498;32.260;2024-02-28T04:35:35;-1.40;99.90
45319;DHT22;31057;48.498;32.260;2024-02-28T04:37:37;-1.40;99.90
45319;DHT22;31057;48.498;32.260;2024-02-28T04:39:39;-1.40;99.90
45319;DHT22;31057;48.498;32.260;2024-02-28T04:41:42;-1.40;99.90
45319;DHT22;31057;48.498;32.260;2024-02-28T04:43:44;-1.40;99.90
45319;DHT22;31057;48.498;32.260;2024-02-28T04:45:46;-1.40;99.90
45319;DHT22;31057;48.498;32.260;2024-02-28T04:47:48;-1.40;99.90
45319;DHT22;31057;48.498;32.260;2024-02-28T04:49:49;-1.40;99.90
45319;DHT22;31057;48.498;32.260;2024-02-28T04:51:51;-1.50;99.90
45319;DHT22;31057;48.498;32.260;2024-02-28T04:53:55;-1.40;99.90
45319;DHT22;31057;48.498;32.260;2024-02-28T04:55:56;-1.40;99.90
45319;DHT22;31057;48.498;32.260;2024-02-28T04:57:58;-1.30;99.90
45319;DHT22;31057;48.498;32.260;2024-02-28T05:00:00;-1.20;99.90
45319;DHT22;31057;48.498;32.260;2024-02-28T05:02:02;-1.10;99.90
45319;DHT22;31057;48.498;32.260;2024-02-28T05:04:08;-1.10;99.90
45319;DHT22;31057;48.498;32.260;2024-02-28T05:06:10;-1.00;99.90
45319;DHT22;31057;48.498;32.260;2024-02-28T05:08:12;-0.90;99.90
45319;DHT22;31057;48.498;32.260;2024-02-28T05:10:14;-0.90;99.90
45319;DHT22;31057;48.498;32.260;2024-02-28T05:12:16;-0.90;99.90
45319;DHT22;31057;48.498;32.260;2024-02-28T05:14:18;-0.80;99.90
45319;DHT22;31057;48.498;32.260;2024-02-28T05:16:21;-0.80;99.90
45319;DHT22;31057;48.498;32.260;2024-02-28T05:18:23;-0.80;99.90
45319;DHT22;31057;48.498;32.260;2024-02-28T05:20:25;-0.70;99.90
45319;DHT22;31057;48.498;32.260;2024-02-28T05:22:26;-0.60;99.90
45319;DHT22;31057;48.498;32.260;2024-02-28T05:24:29;-0.60;99.90
45319;DHT22;31057;48.498;32.260;2024-02-28T05:26:31;-0.70;99.90
45319;DHT22;31057;48.498;32.260;2024-02-28T05:28:35;-0.70;99.90
45319;DHT22;31057;48.498;32.260;2024-02-28T05:30:37;-0.60;99.90
45319;DHT22;31057;48.498;32.260;2024-02-28T05:32:43;-0.50;99.90
45319;DHT22;31057;48.498;32.260;2024-02-28T05:34:46;-0.40;99.90
45319;DHT22;31057;48.498;32.260;2024-02-28T05:36:48;-0.40;99.90
45319;DHT22;31057;48.498;32.260;2024-02-28T05:38:51;-0.30;99.90
45319;DHT22;31057;48.498;32.260;2024-02-28T05:40:53;-0.20;99.90
45319;DHT22;31057;48.498;32.260;2024-02-28T05:42:55;-0.20;99.90
45319;DHT22;31057;48.498;32.260;2024-02-28T05:44:58;0.00;99.90
45319;DHT22;31057;48.498;32.260;2024-02-28T05:47:00;0.00;99.90
45319;DHT22;31057;48.498;32.260;2024-02-28T05:49:02;0.20;99.90
45319;DHT22;31057;48.498;32.260;2024-02-28T05:51:04;0.70;99.90
45319;DHT22;31057;48.498;32.260;2024-02-28T05:53:06;0.50;99.90
45319;DHT22;31057;48.498;32.260;2024-02-28T05:55:08;0.50;99.90
45319;DHT22;31057;48.498;32.260;2024-02-28T05:57:10;0.50;99.90
45319;DHT22;31057;48.498;32.260;2024-02-28T05:59:12;0.50;99.90
45319;DHT22;31057;48.498;32.260;2024-02-28T06:01:16;0.60;99.90
45319;DHT22;31057;48.498;32.260;2024-02-28T06:03:19;0.60;99.90
45319;DHT22;31057;48.498;32.260;2024-02-28T06:05:21;0.80;99.90
45319;DHT22;31057;48.498;32.260;2024-02-28T06:07:23;1.30;99.90
45319;DHT22;31057;48.498;32.260;2024-02-28T06:09:26;1.20;99.90
45319;DHT22;31057;48.498;32.260;2024-02-28T06:11:29;1.10;99.90
45319;DHT22;31057;48.498;32.260;2024-02-28T06:13:31;1.00;99.90
45319;DHT22;31057;48.498;32.260;2024-02-28T06:15:33;1.10;99.90
45319;DHT22;31057;48.498;32.260;2024-02-28T06:17:35;1.10;99.90
45319;DHT22;31057;48.498;32.260;2024-02-28T06:19:37;1.10;99.90
45319;DHT22;31057;48.498;32.260;2024-02-28T06:21:39;1.20;99.90
45319;DHT22;31057;48.498;32.260;2024-02-28T06:23:41;1.20;99.90
45319;DHT22;31057;48.498;32.260;2024-02-28T06:25:43;1.20;99.90
45319;DHT22;31057;48.498;32.260;2024-02-28T06:27:45;1.30;99.90
45319;DHT22;31057;48.498;32.260;2024-02-28T06:29:47;1.40;99.90
45319;DHT22;31057;48.498;32.260;2024-02-28T06:31:51;1.50;99.90
45319;DHT22;31057;48.498;32.260;2024-02-28T06:33:53;1.60;99.90
45319;DHT22;31057;48.498;32.260;2024-02-28T06:35:55;1.60;99.90
45319;DHT22;31057;48.498;32.260;2024-02-28T06:37:57;1.60;99.90
45319;DHT22;31057;48.498;32.260;2024-02-28T06:39:59;1.70;99.90
45319;DHT22;31057;48.498;32.260;2024-02-28T06:42:01;1.70;99.90
45319;DHT22;31057;48.498;32.260;2024-02-28T06:44:03;1.80;99.90
45319;DHT22;31057;48.498;32.260;2024-02-28T06:46:05;1.90;99.90
45319;DHT22;31057;48.498;32.260;2024-02-28T06:48:07;2.00;99.90
45319;DHT22;31057;48.498;32.260;2024-02-28T06:50:09;2.00;99.90
45319;DHT22;31057;48.498;32.260;2024-02-28T06:52:11;2.20;99.90
45319;DHT22;31057;48.498;32.260;2024-02-28T06:54:13;2.20;99.90
45319;DHT22;31057;48.498;32.260;2024-02-28T06:56:16;2.40;99.90
45319;DHT22;31057;48.498;32.260;2024-02-28T06:58:18;2.40;99.90
45319;DHT22;31057;48.498;32.260;2024-02-28T07:00:20;2.60;99.90
45319;DHT22;31057;48.498;32.260;2024-02-28T07:02:22;2.60;99.90
45319;DHT22;31057;48.498;32.260;2024-02-28T07:04:24;2.70;99.90
45319;DHT22;31057;48.498;32.260;2024-02-28T07:06:26;2.80;99.90
45319;DHT22;31057;48.498;32.260;2024-02-28T07:08:28;2.90;99.90
45319;DHT22;31057;48.498;32.260;2024-02-28T07:10:30;3.00;99.90
45319;DHT22;31057;48.498;32.260;2024-02-28T07:12:32;3.10;99.90
45319;DHT22;31057;48.498;32.260;2024-02-28T07:14:34;3.20;99.90
45319;DHT22;31057;48.498;32.260;2024-02-28T07:16:36;3.00;99.90
45319;DHT22;31057;48.498;32.260;2024-02-28T07:18:38;3.10;99.90
45319;DHT22;31057;48.498;32.260;2024-02-28T07:20:40;3.20;99.90
45319;DHT22;31057;48.498;32.260;2024-02-28T07:22:42;3.30;99.90
45319;DHT22;31057;48.498;32.260;2024-02-28T07:24:45;3.30;99.90
45319;DHT22;31057;48.498;32.260;2024-02-28T07:26:46;3.40;99.90
45319;DHT22;31057;48.498;32.260;2024-02-28T07:28:50;3.50;99.90
45319;DHT22;31057;48.498;32.260;2024-02-28T07:30:52;3.50;99.90
45319;DHT22;31057;48.498;32.260;2024-02-28T07:32:54;3.50;99.90
45319;DHT22;31057;48.498;32.260;2024-02-28T07:34:56;3.60;99.90
45319;DHT22;31057;48.498;32.260;2024-02-28T07:36:58;3.70;99.90
45319;DHT22;31057;48.498;32.260;2024-02-28T07:39:00;3.80;99.90
45319;DHT22;31057;48.498;32.260;2024-02-28T07:41:02;3.70;99.90
45319;DHT22;31057;48.498;32.260;2024-02-28T07:43:04;3.60;99.90
45319;DHT22;31057;48.498;32.260;2024-02-28T07:45:06;3.70;99.90
45319;DHT22;31057;48.498;32.260;2024-02-28T07:47:10;3.80;99.90
45319;DHT22;31057;48.498;32.260;2024-02-28T07:49:13;3.90;99.90
45319;DHT22;31057;48.498;32.260;2024-02-28T07:51:15;4.00;99.90
45319;DHT22;31057;48.498;32.260;2024-02-28T07:53:17;3.90;99.90
45319;DHT22;31057;48.498;32.260;2024-02-28T07:55:19;4.00;99.90
45319;DHT22;31057;48.498;32.260;2024-02-28T07:57:23;4.10;99.90
45319;DHT22;31057;48.498;32.260;2024-02-28T07:59:25;4.20;99.90
45319;DHT22;31057;48.498;32.260;2024-02-28T08:01:27;4.30;99.90
45319;DHT22;31057;48.498;32.260;2024-02-28T08:03:30;4.40;99.90
45319;DHT22;31057;48.498;32.260;2024-02-28T08:05:31;4.50;99.90
45319;DHT22;31057;48.498;32.260;2024-02-28T08:07:36;4.60;99.90
45319;DHT22;31057;48.498;32.260;2024-02-28T08:09:38;4.60;99.90
45319;DHT22;31057;48.498;32.260;2024-02-28T08:11:40;4.70;99.90
45319;DHT22;31057;48.498;32.260;2024-02-28T08:13:43;4.80;99.90
45319;DHT22;31057;48.498;32.260;2024-02-28T08:15:45;4.90;99.90
45319;DHT22;31057;48.498;32.260;2024-02-28T08:17:47;5.00;99.90
45319;DHT22;31057;48.498;32.260;2024-02-28T08:19:49;4.90;99.90
45319;DHT22;31057;48.498;32.260;2024-02-28T08:21:51;5.10;99.90
45319;DHT22;31057;48.498;32.260;2024-02-28T08:23:53;5.10;99.90
45319;DHT22;31057;48.498;32.260;2024-02-28T08:25:55;5.20;99.90
45319;DHT22;31057;48.498;32.260;2024-02-28T08:27:57;5.30;99.90
45319;DHT22;31057;48.498;32.260;2024-02-28T08:29:59;5.50;99.90
45319;DHT22;31057;48.498;32.260;2024-02-28T08:32:01;5.50;99.90
45319;DHT22;31057;48.498;32.260;2024-02-28T08:34:03;5.60;99.90
45319;DHT22;31057;48.498;32.260;2024-02-28T08:36:06;5.60;99.90
45319;DHT22;31057;48.498;32.260;2024-02-28T08:38:08;5.70;99.90
45319;DHT22;31057;48.498;32.260;2024-02-28T08:40:11;5.70;99.90
45319;DHT22;31057;48.498;32.260;2024-02-28T08:42:14;5.70;99.90
45319;DHT22;31057;48.498;32.260;2024-02-28T08:44:16;5.70;99.90
45319;DHT22;31057;48.498;32.260;2024-02-28T08:46:18;5.90;99.90
45319;DHT22;31057;48.498;32.260;2024-02-28T08:48:20;5.90;99.90
45319;DHT22;31057;48.498;32.260;2024-02-28T08:50:22;6.10;99.90
45319;DHT22;31057;48.498;32.260;2024-02-28T08:52:23;6.10;99.90
45319;DHT22;31057;48.498;32.260;2024-02-28T08:54:25;6.20;99.90
45319;DHT22;31057;48.498;32.260;2024-02-28T08:56:27;6.40;99.90
45319;DHT22;31057;48.498;32.260;2024-02-28T08:58:29;6.50;99.90
45319;DHT22;31057;48.498;32.260;2024-02-28T09:00:31;6.60;99.90
45319;DHT22;31057;48.498;32.260;2024-02-28T09:02:33;6.70;99.90
45319;DHT22;31057;48.498;32.260;2024-02-28T09:04:36;6.80;99.90
45319;DHT22;31057;48.498;32.260;2024-02-28T09:06:38;7.00;99.90
45319;DHT22;31057;48.498;32.260;2024-02-28T09:08:40;7.00;99.90
45319;DHT22;31057;48.498;32.260;2024-02-28T09:10:42;7.00;99.90
45319;DHT22;31057;48.498;32.260;2024-02-28T09:12:44;7.20;99.90
45319;DHT22;31057;48.498;32.260;2024-02-28T09:14:46;7.20;99.90
45319;DHT22;31057;48.498;32.260;2024-02-28T09:16:49;7.30;99.90
45319;DHT22;31057;48.498;32.260;2024-02-28T09:18:51;7.20;99.90
45319;DHT22;31057;48.498;32.260;2024-02-28T09:20:53;7.30;99.90
45319;DHT22;31057;48.498;32.260;2024-02-28T09:22:55;7.30;99.90
45319;DHT22;31057;48.498;32.260;2024-02-28T09:24:57;7.30;99.90
45319;DHT22;31057;48.498;32.260;2024-02-28T09:26:59;7.30;99.90
45319;DHT22;31057;48.498;32.260;2024-02-28T09:29:01;7.30;99.90
45319;DHT22;31057;48.498;32.260;2024-02-28T09:31:03;7.20;99.90
45319;DHT22;31057;48.498;32.260;2024-02-28T09:33:08;7.30;99.90
45319;DHT22;31057;48.498;32.260;2024-02-28T09:35:10;7.30;99.90
45319;DHT22;31057;48.498;32.260;2024-02-28T09:37:13;7.50;99.90
45319;DHT22;31057;48.498;32.260;2024-02-28T09:39:16;7.60;99.90
45319;DHT22;31057;48.498;32.260;2024-02-28T09:41:18;7.60;99.90
45319;DHT22;31057;48.498;32.260;2024-02-28T09:43:28;7.70;99.90
45319;DHT22;31057;48.498;32.260;2024-02-28T09:45:31;7.60;99.90
45319;DHT22;31057;48.498;32.260;2024-02-28T09:47:34;7.80;99.90
45319;DHT22;31057;48.498;32.260;2024-02-28T09:49:36;8.00;99.90
45319;DHT22;31057;48.498;32.260;2024-02-28T09:51:39;8.10;99.90
45319;DHT22;31057;48.498;32.260;2024-02-28T09:53:41;8.10;99.90
45319;DHT22;31057;48.498;32.260;2024-02-28T09:55:43;8.10;99.90
45319;DHT22;31057;48.498;32.260;2024-02-28T09:57:47;8.10;99.90
45319;DHT22;31057;48.498;32.260;2024-02-28T09:59:49;8.30;99.90
45319;DHT22;31057;48.498;32.260;2024-02-28T10:01:57;8.50;99.90
45319;DHT22;31057;48.498;32.260;2024-02-28T10:04:00;8.30;99.90
45319;DHT22;31057;48.498;32.260;2024-02-28T10:06:04;8.60;99.90
45319;DHT22;31057;48.498;32.260;2024-02-28T10:08:07;8.60;99.90
45319;DHT22;31057;48.498;32.260;2024-02-28T10:10:11;8.70;99.90
45319;DHT22;31057;48.498;32.260;2024-02-28T10:12:13;8.80;99.90
45319;DHT22;31057;48.498;32.260;2024-02-28T10:14:18;8.90;99.90
45319;DHT22;31057;48.498;32.260;2024-02-28T10:16:21;9.00;99.90
45319;DHT22;31057;48.498;32.260;2024-02-28T10:18:25;9.00;99.90
45319;DHT22;31057;48.498;32.260;2024-02-28T10:20:27;9.00;99.90
45319;DHT22;31057;48.498;32.260;2024-02-28T10:22:35;9.10;99.90
45319;DHT22;31057;48.498;32.260;2024-02-28T10:24:37;9.00;99.90
45319;DHT22;31057;48.498;32.260;2024-02-28T10:26:47;9.10;99.90
45319;DHT22;31057;48.498;32.260;2024-02-28T10:28:57;9.20;99.90
45319;DHT22;31057;48.498;32.260;2024-02-28T10:30:58;9.20;99.90
45319;DHT22;31057;48.498;32.260;2024-02-28T10:33:01;9.30;99.90
45319;DHT22;31057;48.498;32.260;2024-02-28T10:35:03;9.40;99.90
45319;DHT22;31057;48.498;32.260;2024-02-28T10:37:05;9.30;99.90
45319;DHT22;31057;48.498;32.260;2024-02-28T10:39:08;9.30;99.90
45319;DHT22;31057;48.498;32.260;2024-02-28T10:41:11;9.40;99.90
45319;DHT22;31057;48.498;32.260;2024-02-28T10:43:16;9.60;99.90
45319;DHT22;31057;48.498;32.260;2024-02-28T10:45:23;9.70;99.90
45319;DHT22;31057;48.498;32.260;2024-02-28T10:47:50;9.80;99.90
45319;DHT22;31057;48.498;32.260;2024-02-28T10:49:53;9.80;99.90
45319;DHT22;31057;48.498;32.260;2024-02-28T10:51:56;9.80;99.90
45319;DHT22;31057;48.498;32.260;2024-02-28T10:56:11;9.60;99.90
45319;DHT22;31057;48.498;32.260;2024-02-28T10:58:14;9.50;99.90
45319;DHT22;31057;48.498;32.260;2024-02-28T11:00:17;9.60;99.90
45319;DHT22;31057;48.498;32.260;2024-02-28T11:02:20;9.60;99.90
45319;DHT22;31057;48.498;32.260;2024-02-28T11:04:22;9.50;99.90
45319;DHT22;31057;48.498;32.260;2024-02-28T11:06:24;9.60;99.90
45319;DHT22;31057;48.498;32.260;2024-02-28T11:08:28;9.50;99.90
45319;DHT22;31057;48.498;32.260;2024-02-28T11:10:31;9.60;99.90
45319;DHT22;31057;48.498;32.260;2024-02-28T11:12:34;9.80;99.90
45319;DHT22;31057;48.498;32.260;2024-02-28T11:14:38;9.90;99.90
45319;DHT22;31057;48.498;32.260;2024-02-28T11:16:40;9.80;99.90
45319;DHT22;31057;48.498;32.260;2024-02-28T11:18:49;9.90;99.90
45319;DHT22;31057;48.498;32.260;2024-02-28T11:20:51;9.90;99.90
45319;DHT22;31057;48.498;32.260;2024-02-28T11:22:57;9.90;99.90
45319;DHT22;31057;48.498;32.260;2024-02-28T11:24:59;9.80;99.90
45319;DHT22;31057;48.498;32.260;2024-02-28T11:27:01;9.90;99.90
45319;DHT22;31057;48.498;32.260;2024-02-28T11:29:08;9.90;99.90
45319;DHT22;31057;48.498;32.260;2024-02-28T11:31:11;10.10;99.90
45319;DHT22;31057;48.498;32.260;2024-02-28T11:33:13;10.10;99.90
45319;DHT22;31057;48.498;32.260;2024-02-28T11:35:15;10.20;99.90
45319;DHT22;31057;48.498;32.260;2024-02-28T11:37:18;10.10;99.90
45319;DHT22;31057;48.498;32.260;2024-02-28T11:39:20;10.20;99.90
45319;DHT22;31057;48.498;32.260;2024-02-28T11:41:29;10.30;99.90
45319;DHT22;31057;48.498;32.260;2024-02-28T11:43:34;10.50;99.90
45319;DHT22;31057;48.498;32.260;2024-02-28T11:45:53;10.50;99.90
45319;DHT22;31057;48.498;32.260;2024-02-28T11:47:57;10.60;99.90
45319;DHT22;31057;48.498;32.260;2024-02-28T11:50:00;10.60;99.90
45319;DHT22;31057;48.498;32.260;2024-02-28T11:52:04;10.70;99.90
45319;DHT22;31057;48.498;32.260;2024-02-28T11:54:07;10.70;99.90
45319;DHT22;31057;48.498;32.260;2024-02-28T11:56:10;10.80;99.90
45319;DHT22;31057;48.498;32.260;2024-02-28T11:58:12;10.60;99.90
45319;DHT22;31057;48.498;32.260;2024-02-28T12:00:14;10.70;99.90
45319;DHT22;31057;48.498;32.260;2024-02-28T12:02:16;10.70;99.90
45319;DHT22;31057;48.498;32.260;2024-02-28T12:04:18;10.70;99.90
45319;DHT22;31057;48.498;32.260;2024-02-28T12:06:20;10.70;99.90
45319;DHT22;31057;48.498;32.260;2024-02-28T12:08:22;10.70;99.90
45319;DHT22;31057;48.498;32.260;2024-02-28T12:10:28;10.90;99.90
45319;DHT22;31057;48.498;32.260;2024-02-28T12:12:30;10.90;99.90
45319;DHT22;31057;48.498;32.260;2024-02-28T12:14:36;10.80;99.90
45319;DHT22;31057;48.498;32.260;2024-02-28T12:16:39;10.80;99.90
45319;DHT22;31057;48.498;32.260;2024-02-28T12:18:41;10.90;99.90
45319;DHT22;31057;48.498;32.260;2024-02-28T12:20:43;10.90;99.90
45319;DHT22;31057;48.498;32.260;2024-02-28T12:22:47;11.00;99.90
45319;DHT22;31057;48.498;32.260;2024-02-28T12:24:49;11.10;99.90
45319;DHT22;31057;48.498;32.260;2024-02-28T12:26:51;11.00;99.90
45319;DHT22;31057;48.498;32.260;2024-02-28T12:28:53;11.00;99.90
45319;DHT22;31057;48.498;32.260;2024-02-28T12:30:55;11.10;99.90
45319;DHT22;31057;48.498;32.260;2024-02-28T12:32:57;11.00;99.90
45319;DHT22;31057;48.498;32.260;2024-02-28T12:34:59;11.00;99.90
45319;DHT22;31057;48.498;32.260;2024-02-28T12:37:03;10.80;99.90
45319;DHT22;31057;48.498;32.260;2024-02-28T12:39:07;10.80;99.90
45319;DHT22;31057;48.498;32.260;2024-02-28T12:41:09;11.00;99.90
45319;DHT22;31057;48.498;32.260;2024-02-28T12:43:11;11.10;99.90
45319;DHT22;31057;48.498;32.260;2024-02-28T12:45:13;11.20;99.90
45319;DHT22;31057;48.498;32.260;2024-02-28T12:47:15;11.30;99.90
45319;DHT22;31057;48.498;32.260;2024-02-28T12:49:17;11.20;99.90